createdAt,value
2022-10-12T00:00:01.450Z,1061.09
2022-10-12T00:01:01.449Z,1060.98
2022-10-12T00:02:01.559Z,1060.58
2022-10-12T00:03:01.454Z,1060.21
2022-10-12T00:04:01.471Z,1060.06
2022-10-12T00:05:01.455Z,1059.64
2022-10-12T00:06:01.456Z,1059.11
2022-10-12T00:07:01.462Z,1058.41
2022-10-12T00:08:01.461Z,1058.36
2022-10-12T00:09:01.479Z,1058.03
2022-10-12T00:10:01.464Z,1057.7
2022-10-12T00:11:01.466Z,1057.51
2022-10-12T00:12:01.495Z,1057.16
2022-10-12T00:13:01.469Z,1057.16
2022-10-12T00:14:01.487Z,1056.8
2022-10-12T00:15:04.481Z,1056.99
2022-10-12T00:16:01.474Z,1056.9
2022-10-12T00:17:01.482Z,1056.57
2022-10-12T00:18:01.479Z,1056.1
2022-10-12T00:19:01.496Z,1056.02
2022-10-12T00:20:01.485Z,1055.55
2022-10-12T00:21:01.482Z,1055.61
2022-10-12T00:22:01.488Z,1055.22
2022-10-12T00:23:01.483Z,1054.88
2022-10-12T00:24:01.521Z,1054.42
2022-10-12T00:25:01.489Z,1053.57
2022-10-12T00:26:04.495Z,1053.16
2022-10-12T00:27:01.493Z,1052.74
2022-10-12T00:28:01.518Z,1052.23
2022-10-12T00:29:01.517Z,1051.81
2022-10-12T00:30:01.510Z,1051.69
2022-10-12T00:31:01.499Z,1051.29
2022-10-12T00:32:01.502Z,1051.1
2022-10-12T00:33:01.502Z,1051.26
2022-10-12T00:34:01.519Z,1050.91
2022-10-12T00:35:01.509Z,1050.93
2022-10-12T00:36:01.507Z,1050.89
2022-10-12T00:37:04.612Z,1050.82
2022-10-12T00:38:01.516Z,1050.75
2022-10-12T00:39:01.531Z,1050.6
2022-10-12T00:40:01.511Z,1050.56
2022-10-12T00:41:01.515Z,1050.54
2022-10-12T00:42:01.517Z,1050.14
2022-10-12T00:43:01.526Z,1049.96
2022-10-12T00:44:01.571Z,1050.07
2022-10-12T00:45:01.520Z,1049.99
2022-10-12T00:46:01.526Z,1049.77
2022-10-12T00:47:01.544Z,1049.68
2022-10-12T00:48:04.422Z,1049.42
2022-10-12T00:49:01.547Z,1049.55
2022-10-12T00:50:01.535Z,1049.19
2022-10-12T00:51:01.536Z,1048.99
2022-10-12T00:52:01.535Z,1048.49
2022-10-12T00:53:01.557Z,1048.55
2022-10-12T00:54:01.568Z,1048.34
2022-10-12T00:55:01.537Z,1048.02
2022-10-12T00:56:01.542Z,1047.99
2022-10-12T00:57:01.545Z,1047.41
2022-10-12T00:58:01.550Z,1047.25
2022-10-12T00:59:04.948Z,1047.21
2022-10-12T01:00:01.546Z,1046.94
2022-10-12T01:01:01.585Z,1046.15
2022-10-12T01:02:01.550Z,1046.35
2022-10-12T01:03:01.556Z,1046.29
2022-10-12T01:04:01.557Z,1045.85
2022-10-12T01:05:01.561Z,1045.97
2022-10-12T01:06:01.556Z,1045.53
2022-10-12T01:07:01.563Z,1045.33
2022-10-12T01:08:01.565Z,1045.33
2022-10-12T01:09:01.565Z,1045.08
2022-10-12T01:10:04.652Z,1045.12
2022-10-12T01:11:01.564Z,1044.55
2022-10-12T01:12:01.566Z,1044.99
2022-10-12T01:13:01.571Z,1044.69
2022-10-12T01:14:01.580Z,1044.47
2022-10-12T01:15:01.595Z,1044.61
2022-10-12T01:16:01.593Z,1044.36
2022-10-12T01:17:01.576Z,1044.29
2022-10-12T01:18:01.576Z,1043.71
2022-10-12T01:19:01.717Z,1043.38
2022-10-12T01:20:01.582Z,1043.26
2022-10-12T01:21:01.580Z,1042.48
2022-10-12T01:22:01.582Z,1042.37
2022-10-12T01:23:01.586Z,1042.26
2022-10-12T01:24:01.591Z,1042.12
2022-10-12T01:25:01.590Z,1042.2
2022-10-12T01:26:01.598Z,1041.68
2022-10-12T01:27:01.591Z,1041.62
2022-10-12T01:28:01.601Z,1041.74
2022-10-12T01:29:01.597Z,1041.68
2022-10-12T01:30:01.597Z,1041.95
2022-10-12T01:31:01.621Z,1041.79
2022-10-12T01:32:01.600Z,1041.31
2022-10-12T01:33:01.603Z,1041.54
2022-10-12T01:34:01.604Z,1041.07
2022-10-12T01:35:01.605Z,1041.15
2022-10-12T01:36:01.610Z,1040.57
2022-10-12T01:37:01.610Z,1040.4
2022-10-12T01:38:01.609Z,1040.19
2022-10-12T01:39:01.614Z,1039.84
2022-10-12T01:40:01.614Z,1039.73
2022-10-12T01:41:01.617Z,1039.54
2022-10-12T01:42:01.621Z,1039.05
2022-10-12T01:43:01.617Z,1038.62
2022-10-12T01:44:01.617Z,1038.69
2022-10-12T01:45:01.623Z,1038.46
2022-10-12T01:46:01.625Z,1037.95
2022-10-12T01:47:01.650Z,1037.72
2022-10-12T01:48:01.641Z,1037.34
2022-10-12T01:49:01.630Z,1036.79
2022-10-12T01:50:01.636Z,1036.7
2022-10-12T01:51:01.642Z,1036.01
2022-10-12T01:52:01.639Z,1035.43
2022-10-12T01:53:01.667Z,1034.92
2022-10-12T01:54:01.635Z,1034.35
2022-10-12T01:55:01.637Z,1033.83
2022-10-12T01:56:01.648Z,1033.54
2022-10-12T01:57:01.642Z,1033.16
2022-10-12T01:58:01.655Z,1032.99
2022-10-12T01:59:01.658Z,1032.82
2022-10-12T02:00:01.666Z,1032.25
2022-10-12T02:01:01.712Z,1032.2
2022-10-12T02:02:01.663Z,1031.59
2022-10-12T02:03:01.687Z,1030.85
2022-10-12T02:04:01.654Z,1030.58
2022-10-12T02:05:01.657Z,1029.9
2022-10-12T02:06:01.670Z,1029.12
2022-10-12T02:07:01.671Z,1028.76
2022-10-12T02:08:01.659Z,1027.75
2022-10-12T02:09:01.672Z,1027.18
2022-10-12T02:10:01.676Z,1026.67
2022-10-12T02:11:01.663Z,1025.99
2022-10-12T02:12:01.682Z,1025.49
2022-10-12T02:13:01.669Z,1024.99
2022-10-12T02:14:01.669Z,1024.61
2022-10-12T02:15:01.672Z,1023.92
2022-10-12T02:16:01.674Z,1023.46
2022-10-12T02:17:01.673Z,1023.06
2022-10-12T02:18:01.677Z,1022.52
2022-10-12T02:19:01.706Z,1022.24
2022-10-12T02:20:01.682Z,1021.74
2022-10-12T02:21:01.684Z,1021.33
2022-10-12T02:22:01.717Z,1020.49
2022-10-12T02:23:01.682Z,1019.83
2022-10-12T02:24:01.689Z,1020.02
2022-10-12T02:25:01.692Z,1019.42
2022-10-12T02:26:01.693Z,1019.19
2022-10-12T02:27:01.696Z,1018.67
2022-10-12T02:28:01.696Z,1018.21
2022-10-12T02:29:01.695Z,1017.57
2022-10-12T02:30:01.695Z,1017.23
2022-10-12T02:31:01.719Z,1016.38
2022-10-12T02:32:01.698Z,1015.91
2022-10-12T02:33:01.703Z,1015.68
2022-10-12T02:34:01.703Z,1014.94
2022-10-12T02:35:01.729Z,1014.5
2022-10-12T02:36:01.708Z,1013.41
2022-10-12T02:37:01.708Z,1012.65
2022-10-12T02:38:01.714Z,1012.25
2022-10-12T02:39:01.710Z,1012.04
2022-10-12T02:40:01.719Z,1011.63
2022-10-12T02:41:01.712Z,1010.73
2022-10-12T02:42:04.860Z,1009.96
2022-10-12T02:43:10.687Z,1009.25
2022-10-12T02:44:01.721Z,1008.69
2022-10-12T02:45:01.722Z,1008.19
2022-10-12T02:46:01.722Z,1007.69
2022-10-12T02:47:01.726Z,1007.27
2022-10-12T02:48:01.725Z,1006.49
2022-10-12T02:49:01.726Z,1006.26
2022-10-12T02:50:01.734Z,1005.64
2022-10-12T02:51:01.754Z,1005.08
2022-10-12T02:52:01.730Z,1005.08
2022-10-12T02:53:04.801Z,1004.39
2022-10-12T02:54:01.739Z,1003.97
2022-10-12T02:55:01.737Z,1003.74
2022-10-12T02:56:01.739Z,1003.25
2022-10-12T02:57:01.741Z,1003.29
2022-10-12T02:58:01.742Z,1002.71
2022-10-12T02:59:01.747Z,1002.24
2022-10-12T03:00:01.752Z,1001.8
2022-10-12T03:01:01.808Z,1001.33
2022-10-12T03:02:01.751Z,1000.65
2022-10-12T03:03:01.751Z,1000.43
2022-10-12T03:04:02.895Z,999.56
2022-10-12T03:05:01.754Z,998.29
2022-10-12T03:06:01.754Z,997.75
2022-10-12T03:07:01.799Z,996.93
2022-10-12T03:08:01.759Z,996.34
2022-10-12T03:09:01.762Z,995.38
2022-10-12T03:10:01.763Z,995.27
2022-10-12T03:11:01.765Z,994.55
2022-10-12T03:12:01.765Z,994.74
2022-10-12T03:13:01.773Z,994.49
2022-10-12T03:14:01.767Z,994.51
2022-10-12T03:15:04.779Z,993.87
2022-10-12T03:16:01.770Z,994.07
2022-10-12T03:17:01.774Z,993.98
2022-10-12T03:18:01.777Z,993.68
2022-10-12T03:19:01.776Z,993.53
2022-10-12T03:20:01.783Z,992.9
2022-10-12T03:21:01.781Z,992.29
2022-10-12T03:22:01.778Z,991.93
2022-10-12T03:23:01.807Z,991.42
2022-10-12T03:24:01.786Z,990.89
2022-10-12T03:25:01.790Z,990.93
2022-10-12T03:26:04.720Z,990.78
2022-10-12T03:27:01.793Z,990.26
2022-10-12T03:28:01.790Z,989.99
2022-10-12T03:29:01.792Z,989.76
2022-10-12T03:30:01.793Z,989.59
2022-10-12T03:31:01.799Z,989.16
2022-10-12T03:32:01.806Z,988.12
2022-10-12T03:33:01.799Z,987.87
2022-10-12T03:34:01.798Z,987.58
2022-10-12T03:35:01.822Z,987.15
2022-10-12T03:36:01.808Z,986.85
2022-10-12T03:37:04.605Z,985.95
2022-10-12T03:38:01.807Z,986.1
2022-10-12T03:39:01.835Z,986.57
2022-10-12T03:40:01.815Z,985.83
2022-10-12T03:41:05.800Z,985.66
2022-10-12T03:42:01.812Z,985.56
2022-10-12T03:43:01.820Z,984.68
2022-10-12T03:44:01.835Z,984.48
2022-10-12T03:45:01.820Z,984.07
2022-10-12T03:46:02.000Z,983.57
2022-10-12T03:47:01.822Z,983.34
2022-10-12T03:48:04.847Z,983.47
2022-10-12T03:49:01.825Z,982.72
2022-10-12T03:50:01.830Z,982.44
2022-10-12T03:51:01.829Z,982.18
2022-10-12T03:52:01.835Z,981.78
2022-10-12T03:53:01.833Z,981.28
2022-10-12T03:54:01.832Z,980.72
2022-10-12T03:55:01.863Z,980.67
2022-10-12T03:56:01.840Z,979.28
2022-10-12T03:57:01.836Z,978.97
2022-10-12T03:58:04.812Z,978.76
2022-10-12T03:59:01.845Z,978.08
2022-10-12T04:00:01.843Z,977.95
2022-10-12T04:01:01.900Z,977.2
2022-10-12T04:02:01.845Z,977.08
2022-10-12T04:03:01.850Z,976.44
2022-10-12T04:04:01.849Z,975.88
2022-10-12T04:05:01.870Z,975.18
2022-10-12T04:06:01.857Z,974.55
2022-10-12T04:07:01.854Z,973.6
2022-10-12T04:08:01.856Z,973
2022-10-12T04:09:01.860Z,972.13
2022-10-12T04:10:01.886Z,971.44
2022-10-12T04:11:01.883Z,970.82
2022-10-12T04:12:01.861Z,970.03
2022-10-12T04:13:01.864Z,969.48
2022-10-12T04:14:01.864Z,969.12
2022-10-12T04:15:01.886Z,968.74
2022-10-12T04:16:01.878Z,968.52
2022-10-12T04:17:01.869Z,967.74
2022-10-12T04:18:01.870Z,967.12
2022-10-12T04:19:01.881Z,966.79
2022-10-12T04:20:01.904Z,966.71
2022-10-12T04:21:01.879Z,966.42
2022-10-12T04:22:01.880Z,965.65
2022-10-12T04:23:01.878Z,965.53
2022-10-12T04:24:01.882Z,965
2022-10-12T04:25:01.905Z,964.74
2022-10-12T04:26:01.886Z,964.19
2022-10-12T04:27:01.913Z,964.12
2022-10-12T04:28:01.886Z,963.77
2022-10-12T04:29:01.890Z,963.23
2022-10-12T04:30:01.910Z,962.72
2022-10-12T04:31:01.892Z,962.29
2022-10-12T04:32:01.893Z,962.18
2022-10-12T04:33:01.899Z,961.74
2022-10-12T04:34:01.899Z,961.29
2022-10-12T04:35:01.921Z,961
2022-10-12T04:36:01.901Z,960.34
2022-10-12T04:37:01.901Z,959.48
2022-10-12T04:38:01.906Z,958.71
2022-10-12T04:39:01.909Z,957.85
2022-10-12T04:40:01.946Z,957.06
2022-10-12T04:41:01.914Z,956.34
2022-10-12T04:42:01.912Z,956.08
2022-10-12T04:43:01.937Z,955.18
2022-10-12T04:44:01.913Z,953.86
2022-10-12T04:45:01.932Z,953.33
2022-10-12T04:46:01.918Z,951.87
2022-10-12T04:47:01.919Z,951.59
2022-10-12T04:48:01.921Z,950.68
2022-10-12T04:49:01.920Z,949.58
2022-10-12T04:50:01.958Z,949.24
2022-10-12T04:51:01.926Z,948.47
2022-10-12T04:52:01.940Z,947.7
2022-10-12T04:53:01.928Z,947.09
2022-10-12T04:54:01.932Z,946.25
2022-10-12T04:55:01.948Z,945.71
2022-10-12T04:56:01.937Z,945.47
2022-10-12T04:57:01.938Z,944.83
2022-10-12T04:58:01.961Z,943.55
2022-10-12T04:59:01.976Z,942.84
2022-10-12T05:00:01.957Z,943.22
2022-10-12T05:01:02.057Z,942.66
2022-10-12T05:02:01.942Z,942.05
2022-10-12T05:03:01.975Z,940.92
2022-10-12T05:04:01.952Z,940.46
2022-10-12T05:05:01.964Z,939.93
2022-10-12T05:06:01.951Z,939.46
2022-10-12T05:07:01.954Z,938.83
2022-10-12T05:08:01.956Z,938.69
2022-10-12T05:09:02.058Z,938.34
2022-10-12T05:10:01.976Z,938.21
2022-10-12T05:11:01.956Z,938.24
2022-10-12T05:12:01.972Z,938.44
2022-10-12T05:13:01.962Z,937.99
2022-10-12T05:14:01.967Z,937.54
2022-10-12T05:15:02.006Z,937.57
2022-10-12T05:16:01.964Z,936.85
2022-10-12T05:17:01.964Z,936.12
2022-10-12T05:18:01.965Z,936.77
2022-10-12T05:19:01.969Z,936.29
2022-10-12T05:20:03.095Z,936.39
2022-10-12T05:21:01.976Z,936.2
2022-10-12T05:22:01.991Z,935.67
2022-10-12T05:23:01.977Z,935.75
2022-10-12T05:24:01.976Z,935.77
2022-10-12T05:25:01.983Z,935.86
2022-10-12T05:26:01.984Z,935.9
2022-10-12T05:27:01.981Z,935.52
2022-10-12T05:28:01.986Z,935.07
2022-10-12T05:29:02.018Z,934.92
2022-10-12T05:30:01.985Z,934.62
2022-10-12T05:31:03.096Z,934.81
2022-10-12T05:32:01.992Z,934.18
2022-10-12T05:33:01.992Z,934.08
2022-10-12T05:34:01.992Z,934.34
2022-10-12T05:35:01.993Z,934.54
2022-10-12T05:36:01.996Z,934.72
2022-10-12T05:37:01.994Z,935.07
2022-10-12T05:38:01.999Z,934.97
2022-10-12T05:39:02.001Z,934.92
2022-10-12T05:40:02.001Z,934.81
2022-10-12T05:41:02.004Z,935.17
2022-10-12T05:42:05.185Z,935.06
2022-10-12T05:43:02.008Z,935.23
2022-10-12T05:44:02.022Z,935.38
2022-10-12T05:45:02.014Z,935.51
2022-10-12T05:46:02.013Z,935.4
2022-10-12T05:47:02.041Z,935.28
2022-10-12T05:48:02.018Z,935.56
2022-10-12T05:49:02.019Z,935.04
2022-10-12T05:50:02.022Z,935.23
2022-10-12T05:51:02.021Z,935.9
2022-10-12T05:52:02.024Z,935.96
2022-10-12T05:53:05.065Z,936.4
2022-10-12T05:54:02.026Z,936.47
2022-10-12T05:55:02.028Z,937.47
2022-10-12T05:56:02.025Z,937.59
2022-10-12T05:57:02.038Z,938.42
2022-10-12T05:58:02.028Z,938.85
2022-10-12T05:59:02.031Z,939.56
2022-10-12T06:00:02.034Z,939.64
2022-10-12T06:01:02.039Z,940.55
2022-10-12T06:02:02.127Z,941.24
2022-10-12T06:03:02.063Z,941.65
2022-10-12T06:04:02.065Z,942.68
2022-10-12T06:05:02.042Z,943.3
2022-10-12T06:06:02.047Z,943.31
2022-10-12T06:07:02.045Z,943.82
2022-10-12T06:08:02.047Z,942.98
2022-10-12T06:09:02.049Z,943.11
2022-10-12T06:10:02.049Z,942.24
2022-10-12T06:11:02.054Z,942.35
2022-10-12T06:12:02.053Z,943.15
2022-10-12T06:13:02.240Z,943.01
2022-10-12T06:14:02.057Z,943.02
2022-10-12T06:15:02.062Z,942.86
2022-10-12T06:16:02.061Z,943.14
2022-10-12T06:17:02.065Z,942.78
2022-10-12T06:18:02.062Z,942.76
2022-10-12T06:19:02.088Z,943.45
2022-10-12T06:20:02.091Z,944.45
2022-10-12T06:21:28.719Z,945.72
2022-10-12T06:22:02.066Z,946.07
2022-10-12T06:23:02.071Z,946.72
2022-10-12T06:24:02.103Z,946.65
2022-10-12T06:25:02.080Z,946.97
2022-10-12T06:26:02.076Z,947.95
2022-10-12T06:27:02.081Z,948.55
2022-10-12T06:28:02.082Z,949.44
2022-10-12T06:29:02.095Z,950.41
2022-10-12T06:30:02.081Z,951.74
2022-10-12T06:31:02.085Z,952.43
2022-10-12T06:32:02.088Z,953.61
2022-10-12T06:33:02.084Z,954.38
2022-10-12T06:34:02.089Z,954.56
2022-10-12T06:35:02.115Z,955.22
2022-10-12T06:36:02.091Z,955.57
2022-10-12T06:37:02.369Z,956.09
2022-10-12T06:38:02.131Z,957.35
2022-10-12T06:39:02.102Z,958.21
2022-10-12T06:40:02.104Z,959.31
2022-10-12T06:41:02.099Z,960.5
2022-10-12T06:42:02.099Z,961.73
2022-10-12T06:43:02.100Z,962.69
2022-10-12T06:44:02.104Z,963.32
2022-10-12T06:45:02.109Z,963.85
2022-10-12T06:46:02.110Z,963.84
2022-10-12T06:47:02.157Z,964.4
2022-10-12T06:48:02.120Z,964.39
2022-10-12T06:49:02.112Z,965.22
2022-10-12T06:50:02.135Z,965.68
2022-10-12T06:51:02.145Z,966.11
2022-10-12T06:52:02.120Z,966.54
2022-10-12T06:53:02.128Z,966.84
2022-10-12T06:54:02.125Z,966.72
2022-10-12T06:55:02.121Z,967.2
2022-10-12T06:56:02.121Z,967.95
2022-10-12T06:57:02.126Z,968.69
2022-10-12T06:58:02.124Z,969.38
2022-10-12T06:59:02.128Z,970.33
2022-10-12T07:00:02.139Z,970.75
2022-10-12T07:01:02.142Z,971.57
2022-10-12T07:02:02.276Z,971.97
2022-10-12T07:03:02.153Z,972.43
2022-10-12T07:04:02.141Z,972.78
2022-10-12T07:05:02.135Z,973.4
2022-10-12T07:06:02.141Z,973.5
2022-10-12T07:07:02.168Z,974.52
2022-10-12T07:08:02.141Z,974.98
2022-10-12T07:09:02.147Z,975.7
2022-10-12T07:10:02.150Z,976.13
2022-10-12T07:11:02.146Z,976.86
2022-10-12T07:12:02.149Z,977.87
2022-10-12T07:13:02.153Z,978.14
2022-10-12T07:14:02.151Z,978.51
2022-10-12T07:15:02.151Z,979.02
2022-10-12T07:16:02.154Z,979.72
2022-10-12T07:17:02.183Z,980.3
2022-10-12T07:18:02.158Z,980.8
2022-10-12T07:19:02.161Z,980.97
2022-10-12T07:20:02.165Z,981.27
2022-10-12T07:21:02.164Z,981.87
2022-10-12T07:22:02.175Z,983.15
2022-10-12T07:23:02.195Z,983.91
2022-10-12T07:24:02.168Z,984.25
2022-10-12T07:25:02.174Z,984.88
2022-10-12T07:26:02.176Z,985.3
2022-10-12T07:27:02.175Z,986.43
2022-10-12T07:28:02.173Z,987.81
2022-10-12T07:29:02.182Z,989.17
2022-10-12T07:30:02.184Z,990.32
2022-10-12T07:31:02.179Z,991.26
2022-10-12T07:32:02.183Z,992.66
2022-10-12T07:33:02.184Z,993.85
2022-10-12T07:34:02.183Z,994.84
2022-10-12T07:35:02.188Z,995.43
2022-10-12T07:36:13.701Z,996.45
2022-10-12T07:37:02.190Z,997.62
2022-10-12T07:38:02.187Z,998.45
2022-10-12T07:39:02.240Z,999.33
2022-10-12T07:40:02.193Z,1000.03
2022-10-12T07:41:02.227Z,1001.02
2022-10-12T07:42:02.203Z,1001.36
2022-10-12T07:43:17.519Z,1002.5
2022-10-12T07:44:02.204Z,1003.63
2022-10-12T07:45:02.204Z,1004.74
2022-10-12T07:46:03.255Z,1006.15
2022-10-12T07:47:05.321Z,1007.17
2022-10-12T07:48:02.208Z,1007.96
2022-10-12T07:49:02.207Z,1009.04
2022-10-12T07:50:02.224Z,1010.21
2022-10-12T07:51:02.211Z,1011.51
2022-10-12T07:52:02.216Z,1012.87
2022-10-12T07:53:02.218Z,1014.04
2022-10-12T07:54:02.228Z,1015.33
2022-10-12T07:55:02.268Z,1016.34
2022-10-12T07:56:02.223Z,1017.17
2022-10-12T07:57:02.223Z,1018.06
2022-10-12T07:58:05.047Z,1019.06
2022-10-12T07:59:02.224Z,1019.58
2022-10-12T08:00:02.231Z,1020.53
2022-10-12T08:01:02.225Z,1021.56
2022-10-12T08:02:02.279Z,1023.19
2022-10-12T08:03:02.241Z,1025.52
2022-10-12T08:04:02.298Z,1028.11
2022-10-12T08:05:02.239Z,1030.13
2022-10-12T08:06:02.254Z,1032.5
2022-10-12T08:07:02.239Z,1035.23
2022-10-12T08:08:02.236Z,1038.41
2022-10-12T08:09:05.005Z,1041.48
2022-10-12T08:10:02.241Z,1046.07
2022-10-12T08:11:02.298Z,1050.46
2022-10-12T08:12:02.249Z,1055.18
2022-10-12T08:13:02.246Z,1060.57
2022-10-12T08:14:02.247Z,1063.43
2022-10-12T08:15:02.250Z,1064.09
2022-10-12T08:16:02.272Z,1064.91
2022-10-12T08:17:02.256Z,1066.23
2022-10-12T08:18:02.258Z,1067.16
2022-10-12T08:19:02.261Z,1068.12
2022-10-12T08:20:05.097Z,1069.3
2022-10-12T08:21:02.280Z,1071.09
2022-10-12T08:22:02.274Z,1074.76
2022-10-12T08:23:02.266Z,1079.47
2022-10-12T08:24:02.282Z,1083.44
2022-10-12T08:25:02.272Z,1085.89
2022-10-12T08:26:02.296Z,1088.12
2022-10-12T08:27:02.298Z,1091.16
2022-10-12T08:28:02.270Z,1094.77
2022-10-12T08:29:02.309Z,1098.66
2022-10-12T08:30:02.280Z,1101.7
2022-10-12T08:31:05.133Z,1104.69
2022-10-12T08:32:02.278Z,1107.29
2022-10-12T08:33:04.042Z,1110.06
2022-10-12T08:34:02.286Z,1112.69
2022-10-12T08:35:02.286Z,1115.9
2022-10-12T08:36:02.308Z,1118.82
2022-10-12T08:37:02.296Z,1121.73
2022-10-12T08:38:02.298Z,1123.96
2022-10-12T08:39:02.309Z,1125.95
2022-10-12T08:40:05.025Z,1128.06
2022-10-12T08:41:02.328Z,1129.47
2022-10-12T08:42:02.300Z,1130.45
2022-10-12T08:43:02.323Z,1131.81
2022-10-12T08:44:02.301Z,1132.93
2022-10-12T08:45:02.303Z,1133.94
2022-10-12T08:46:02.339Z,1134.6
2022-10-12T08:47:02.344Z,1135.43
2022-10-12T08:48:02.308Z,1136.27
2022-10-12T08:49:02.307Z,1136.93
2022-10-12T08:50:02.309Z,1137.53
2022-10-12T08:51:02.334Z,1138.22
2022-10-12T08:52:02.322Z,1138.73
2022-10-12T08:53:02.313Z,1139.12
2022-10-12T08:54:02.319Z,1139.44
2022-10-12T08:55:02.317Z,1139.73
2022-10-12T08:56:02.350Z,1139.97
2022-10-12T08:57:02.327Z,1140.17
2022-10-12T08:58:02.333Z,1140.29
2022-10-12T08:59:02.361Z,1140.36
2022-10-12T09:00:02.327Z,1140.37
2022-10-12T09:01:02.356Z,1140.23
2022-10-12T09:02:02.378Z,1140.09
2022-10-12T09:03:02.339Z,1139.86
2022-10-12T09:04:02.341Z,1139.58
2022-10-12T09:05:02.342Z,1139.19
2022-10-12T09:06:02.368Z,1138.75
2022-10-12T09:07:02.343Z,1138.3
2022-10-12T09:08:02.342Z,1137.79
2022-10-12T09:09:02.378Z,1137.25
2022-10-12T09:10:02.351Z,1136.71
2022-10-12T09:11:02.395Z,1136.07
2022-10-12T09:12:02.348Z,1135.45
2022-10-12T09:13:02.414Z,1134.81
2022-10-12T09:14:02.360Z,1134.24
2022-10-12T09:15:02.380Z,1133.61
2022-10-12T09:16:02.374Z,1132.66
2022-10-12T09:17:02.359Z,1131.72
2022-10-12T09:18:02.359Z,1130.95
2022-10-12T09:19:02.364Z,1130.2
2022-10-12T09:20:02.387Z,1129.47
2022-10-12T09:21:02.446Z,1128.56
2022-10-12T09:22:02.388Z,1127.88
2022-10-12T09:23:02.371Z,1127.07
2022-10-12T09:24:02.372Z,1126.46
2022-10-12T09:25:02.376Z,1126.01
2022-10-12T09:26:02.396Z,1125.63
2022-10-12T09:27:02.394Z,1125.16
2022-10-12T09:28:02.379Z,1124.79
2022-10-12T09:29:02.489Z,1124.27
2022-10-12T09:30:02.385Z,1124.1
2022-10-12T09:31:02.466Z,1123.8
2022-10-12T09:32:02.384Z,1123.15
2022-10-12T09:33:02.386Z,1122.23
2022-10-12T09:34:02.402Z,1121.06
2022-10-12T09:35:02.391Z,1120.13
2022-10-12T09:36:02.415Z,1119.29
2022-10-12T09:37:02.399Z,1118.59
2022-10-12T09:38:02.394Z,1118.04
2022-10-12T09:39:02.401Z,1117.27
2022-10-12T09:40:02.400Z,1116.32
2022-10-12T09:41:02.430Z,1115.52
2022-10-12T09:42:02.406Z,1114.57
2022-10-12T09:43:02.404Z,1113.39
2022-10-12T09:44:02.406Z,1112.36
2022-10-12T09:45:02.406Z,1111.12
2022-10-12T09:46:02.433Z,1110.03
2022-10-12T09:47:02.448Z,1108.59
2022-10-12T09:48:02.415Z,1107.09
2022-10-12T09:49:02.416Z,1105.81
2022-10-12T09:50:02.431Z,1104.84
2022-10-12T09:51:02.442Z,1104.13
2022-10-12T09:52:02.424Z,1103.21
2022-10-12T09:53:02.428Z,1102.1
2022-10-12T09:54:02.425Z,1100.58
2022-10-12T09:55:03.709Z,1100.14
2022-10-12T09:56:02.466Z,1100.15
2022-10-12T09:57:02.431Z,1099.99
2022-10-12T09:58:02.453Z,1099.44
2022-10-12T09:59:02.435Z,1098.7
2022-10-12T10:00:02.441Z,1097.92
2022-10-12T10:01:02.458Z,1096.96
2022-10-12T10:02:02.466Z,1095.94
2022-10-12T10:03:02.467Z,1094.59
2022-10-12T10:04:02.448Z,1093.43
2022-10-12T10:05:02.445Z,1092.27
2022-10-12T10:06:02.468Z,1091.71
2022-10-12T10:07:02.449Z,1091.66
2022-10-12T10:08:02.455Z,1091.46
2022-10-12T10:09:02.451Z,1091.08
2022-10-12T10:10:02.455Z,1090.59
2022-10-12T10:11:02.475Z,1089.97
2022-10-12T10:12:02.459Z,1089.63
2022-10-12T10:13:02.466Z,1089.44
2022-10-12T10:14:05.219Z,1089.21
2022-10-12T10:15:02.465Z,1089.05
2022-10-12T10:16:02.486Z,1088.93
2022-10-12T10:17:02.472Z,1088.04
2022-10-12T10:18:02.468Z,1087.23
2022-10-12T10:19:02.552Z,1086.92
2022-10-12T10:20:02.476Z,1086.78
2022-10-12T10:21:02.490Z,1086.3
2022-10-12T10:22:02.478Z,1085.67
2022-10-12T10:23:02.477Z,1085.11
2022-10-12T10:24:02.516Z,1084.92
2022-10-12T10:25:05.608Z,1084.95
2022-10-12T10:26:02.505Z,1084.98
2022-10-12T10:27:02.496Z,1084.67
2022-10-12T10:28:02.489Z,1083.95
2022-10-12T10:29:02.542Z,1083.03
2022-10-12T10:30:10.526Z,1082.49
2022-10-12T10:31:02.522Z,1081.78
2022-10-12T10:32:02.495Z,1081.18
2022-10-12T10:33:02.496Z,1080.68
2022-10-12T10:34:02.503Z,1080.19
2022-10-12T10:35:02.525Z,1079.33
2022-10-12T10:36:04.325Z,1078.89
2022-10-12T10:37:02.504Z,1078.47
2022-10-12T10:38:02.509Z,1078.24
2022-10-12T10:39:02.507Z,1078.38
2022-10-12T10:40:02.517Z,1078.94
2022-10-12T10:41:02.539Z,1079.48
2022-10-12T10:42:02.512Z,1079.9
2022-10-12T10:43:02.518Z,1079.16
2022-10-12T10:44:02.531Z,1078.17
2022-10-12T10:45:02.522Z,1077.11
2022-10-12T10:46:02.522Z,1077.24
2022-10-12T10:47:05.467Z,1076.75
2022-10-12T10:48:05.511Z,1076.24
2022-10-12T10:49:02.531Z,1075.68
2022-10-12T10:50:02.528Z,1076.8
2022-10-12T10:51:02.551Z,1079.74
2022-10-12T10:52:02.573Z,1079.97
2022-10-12T10:53:02.534Z,1083.75
2022-10-12T10:54:02.534Z,1087.07
2022-10-12T10:55:02.532Z,1090.14
2022-10-12T10:56:02.552Z,1090.15
2022-10-12T10:57:02.552Z,1089.68
2022-10-12T10:58:05.318Z,1092.61
2022-10-12T10:59:05.286Z,1095.65
2022-10-12T11:00:26.298Z,1096.87
2022-10-12T11:01:02.561Z,1096.25
2022-10-12T11:02:02.606Z,1095.19
2022-10-12T11:03:02.550Z,1094.59
2022-10-12T11:04:02.556Z,1095.38
2022-10-12T11:05:02.566Z,1097.4
2022-10-12T11:06:02.555Z,1100
2022-10-12T11:07:02.608Z,1102.88
2022-10-12T11:08:02.579Z,1105.48
2022-10-12T11:09:02.573Z,1107.19
2022-10-12T11:10:02.601Z,1108.83
2022-10-12T11:11:02.567Z,1110.7
2022-10-12T11:12:02.581Z,1112.43
2022-10-12T11:13:02.571Z,1113.95
2022-10-12T11:14:02.600Z,1115.38
2022-10-12T11:15:02.576Z,1117.12
2022-10-12T11:16:02.577Z,1118.35
2022-10-12T11:17:02.606Z,1119.73
2022-10-12T11:18:08.361Z,1121.11
2022-10-12T11:19:02.588Z,1122.32
2022-10-12T11:20:02.608Z,1123.24
2022-10-12T11:21:02.597Z,1123.72
2022-10-12T11:22:02.587Z,1122.99
2022-10-12T11:23:02.612Z,1122.88
2022-10-12T11:24:02.594Z,1122.59
2022-10-12T11:25:02.611Z,1121.55
2022-10-12T11:26:02.598Z,1120.36
2022-10-12T11:27:02.595Z,1119.51
2022-10-12T11:28:02.599Z,1119.3
2022-10-12T11:29:02.598Z,1119.38
2022-10-12T11:30:09.102Z,1120.04
2022-10-12T11:31:02.611Z,1120.61
2022-10-12T11:32:02.604Z,1121.17
2022-10-12T11:33:02.607Z,1122.37
2022-10-12T11:34:02.619Z,1123.5
2022-10-12T11:35:02.614Z,1124.68
2022-10-12T11:36:02.613Z,1125.7
2022-10-12T11:37:19.819Z,1126.61
2022-10-12T11:38:02.616Z,1127.22
2022-10-12T11:39:06.813Z,1127.42
2022-10-12T11:40:02.616Z,1127.96
2022-10-12T11:41:14.183Z,1128.06
2022-10-12T11:42:23.449Z,1127.58
2022-10-12T11:43:23.440Z,1128.03
2022-10-12T11:44:27.813Z,1128.56
2022-10-12T11:45:23.432Z,1129.03
2022-10-12T11:46:23.450Z,1129.5
2022-10-12T11:47:23.438Z,1129.72
2022-10-12T11:48:26.934Z,1129.25
2022-10-12T11:49:23.444Z,1128.6
2022-10-12T11:50:23.448Z,1127.56
2022-10-12T11:51:23.467Z,1126.67
2022-10-12T11:52:26.347Z,1125.71
2022-10-12T11:53:23.478Z,1124.62
2022-10-12T11:54:23.524Z,1123.36
2022-10-12T11:55:23.463Z,1122
2022-10-12T11:56:23.499Z,1120.39
2022-10-12T11:57:23.469Z,1118.77
2022-10-12T11:58:31.794Z,1117.31
2022-10-12T11:59:23.552Z,1115.67
2022-10-12T12:00:23.470Z,1114.61
2022-10-12T12:01:23.506Z,1114.05
2022-10-12T12:02:23.475Z,1115.04
2022-10-12T12:03:23.558Z,1115.77
2022-10-12T12:04:40.953Z,1116.54
2022-10-12T12:05:23.494Z,1117.24
2022-10-12T12:06:23.509Z,1118.16
2022-10-12T12:07:23.479Z,1118.8
2022-10-12T12:08:23.513Z,1119.21
2022-10-12T12:09:23.493Z,1118.24
2022-10-12T12:10:26.277Z,1117.48
2022-10-12T12:11:23.510Z,1116.74
2022-10-12T12:12:23.486Z,1115.8
2022-10-12T12:13:23.487Z,1114.68
2022-10-12T12:14:23.502Z,1113.94
2022-10-12T12:15:23.540Z,1113.35
2022-10-12T12:16:23.520Z,1112.45